sensor_id;sensor_type;location;lat;lon;timestamp;temperature;humidity
3348;DHT22;1687;49.540;8.574;2023-02-26T00:01:12;2.00;60.00
3348;DHT22;1687;49.540;8.574;2023-02-26T00:03:38;2.00;60.00
3348;DHT22;1687;49.540;8.574;2023-02-26T00:06:05;1.90;59.90
3348;DHT22;1687;49.540;8.574;2023-02-26T00:08:31;1.90;59.90
3348;DHT22;1687;49.540;8.574;2023-02-26T00:10:57;1.90;59.90
3348;DHT22;1687;49.540;8.574;2023-02-26T00:13:29;1.80;59.90
3348;DHT22;1687;49.540;8.574;2023-02-26T00:16:00;1.80;59.90
3348;DHT22;1687;49.540;8.574;2023-02-26T00:18:26;1.80;60.10
3348;DHT22;1687;49.540;8.574;2023-02-26T00:20:53;1.80;60.00
3348;DHT22;1687;49.540;8.574;2023-02-26T00:23:19;1.80;60.20
3348;DHT22;1687;49.540;8.574;2023-02-26T00:25:45;1.90;60.30
3348;DHT22;1687;49.540;8.574;2023-02-26T00:28:12;1.90;60.30
3348;DHT22;1687;49.540;8.574;2023-02-26T00:30:38;2.00;60.50
3348;DHT22;1687;49.540;8.574;2023-02-26T00:33:04;2.10;60.70
3348;DHT22;1687;49.540;8.574;2023-02-26T00:35:31;2.20;60.50
3348;DHT22;1687;49.540;8.574;2023-02-26T00:38:05;2.20;60.50
3348;DHT22;1687;49.540;8.574;2023-02-26T00:40:48;2.20;60.40
3348;DHT22;1687;49.540;8.574;2023-02-26T00:43:20;2.20;60.50
3348;DHT22;1687;49.540;8.574;2023-02-26T00:51:36;2.20;60.30
3348;DHT22;1687;49.540;8.574;2023-02-26T00:54:19;2.20;60.30
3348;DHT22;1687;49.540;8.574;2023-02-26T00:56:51;2.10;60.10
3348;DHT22;1687;49.540;8.574;2023-02-26T00:59:18;2.10;60.20
3348;DHT22;1687;49.540;8.574;2023-02-26T01:01:44;2.00;60.30
3348;DHT22;1687;49.540;8.574;2023-02-26T01:04:12;2.10;60.50
3348;DHT22;1687;49.540;8.574;2023-02-26T01:06:47;2.10;60.30
3348;DHT22;1687;49.540;8.574;2023-02-26T01:09:27;2.00;60.10
3348;DHT22;1687;49.540;8.574;2023-02-26T01:11:58;2.00;60.10
3348;DHT22;1687;49.540;8.574;2023-02-26T01:14:26;2.00;60.40
3348;DHT22;1687;49.540;8.574;2023-02-26T01:20:04;2.00;60.50
3348;DHT22;1687;49.540;8.574;2023-02-26T01:22:57;2.00;60.10
3348;DHT22;1687;49.540;8.574;2023-02-26T01:25:29;1.90;60.00
3348;DHT22;1687;49.540;8.574;2023-02-26T01:28:02;1.80;60.00
3348;DHT22;1687;49.540;8.574;2023-02-26T01:30:28;1.80;60.30
3348;DHT22;1687;49.540;8.574;2023-02-26T01:35:50;1.60;59.70
3348;DHT22;1687;49.540;8.574;2023-02-26T01:38:48;1.60;60.00
3348;DHT22;1687;49.540;8.574;2023-02-26T01:45:00;1.50;60.00
3348;DHT22;1687;49.540;8.574;2023-02-26T01:47:54;1.50;60.00
3348;DHT22;1687;49.540;8.574;2023-02-26T01:50:36;1.50;60.10
3348;DHT22;1687;49.540;8.574;2023-02-26T01:53:25;1.50;60.00
3348;DHT22;1687;49.540;8.574;2023-02-26T01:55:55;1.50;60.10
3348;DHT22;1687;49.540;8.574;2023-02-26T01:58:28;1.50;60.10
3348;DHT22;1687;49.540;8.574;2023-02-26T02:00:56;1.50;60.40
3348;DHT22;1687;49.540;8.574;2023-02-26T02:03:23;1.60;60.50
3348;DHT22;1687;49.540;8.574;2023-02-26T02:06:04;1.70;60.30
3348;DHT22;1687;49.540;8.574;2023-02-26T02:08:33;1.70;60.40
3348;DHT22;1687;49.540;8.574;2023-02-26T02:11:00;1.70;60.30
3348;DHT22;1687;49.540;8.574;2023-02-26T02:19:42;1.70;60.20
3348;DHT22;1687;49.540;8.574;2023-02-26T02:31:48;1.70;60.10
3348;DHT22;1687;49.540;8.574;2023-02-26T02:37:21;1.70;60.50
3348;DHT22;1687;49.540;8.574;2023-02-26T02:40:03;1.60;60.10
3348;DHT22;1687;49.540;8.574;2023-02-26T02:42:55;1.60;60.30
3348;DHT22;1687;49.540;8.574;2023-02-26T02:45:51;1.60;60.20
3348;DHT22;1687;49.540;8.574;2023-02-26T02:48:23;1.40;60.00
3348;DHT22;1687;49.540;8.574;2023-02-26T02:51:06;1.30;59.90
3348;DHT22;1687;49.540;8.574;2023-02-26T02:53:38;1.30;60.10
3348;DHT22;1687;49.540;8.574;2023-02-26T02:56:17;1.30;60.20
3348;DHT22;1687;49.540;8.574;2023-02-26T02:58:53;1.30;60.20
3348;DHT22;1687;49.540;8.574;2023-02-26T03:01:24;1.20;60.00
3348;DHT22;1687;49.540;8.574;2023-02-26T03:04:01;1.20;60.20
3348;DHT22;1687;49.540;8.574;2023-02-26T03:06:33;1.10;60.10
3348;DHT22;1687;49.540;8.574;2023-02-26T03:09:00;1.20;60.40
3348;DHT22;1687;49.540;8.574;2023-02-26T03:11:29;1.10;60.30
3348;DHT22;1687;49.540;8.574;2023-02-26T03:13:55;1.10;60.30
3348;DHT22;1687;49.540;8.574;2023-02-26T03:16:38;1.10;60.30
3348;DHT22;1687;49.540;8.574;2023-02-26T03:22:40;1.00;60.50
3348;DHT22;1687;49.540;8.574;2023-02-26T03:25:26;1.10;61.50
3348;DHT22;1687;49.540;8.574;2023-02-26T03:31:00;1.10;60.70
3348;DHT22;1687;49.540;8.574;2023-02-26T03:36:38;1.10;60.80
3348;DHT22;1687;49.540;8.574;2023-02-26T03:39:18;1.00;60.60
3348;DHT22;1687;49.540;8.574;2023-02-26T03:41:55;1.00;60.90
3348;DHT22;1687;49.540;8.574;2023-02-26T03:44:27;1.00;60.70
3348;DHT22;1687;49.540;8.574;2023-02-26T03:46:59;1.00;60.70
3348;DHT22;1687;49.540;8.574;2023-02-26T03:49:42;1.00;60.90
3348;DHT22;1687;49.540;8.574;2023-02-26T03:52:11;1.00;60.90
3348;DHT22;1687;49.540;8.574;2023-02-26T03:54:41;1.00;60.90
3348;DHT22;1687;49.540;8.574;2023-02-26T03:57:09;0.90;60.90
3348;DHT22;1687;49.540;8.574;2023-02-26T03:59:35;0.90;60.80
3348;DHT22;1687;49.540;8.574;2023-02-26T04:02:13;0.90;60.90
3348;DHT22;1687;49.540;8.574;2023-02-26T04:04:55;0.90;60.90
3348;DHT22;1687;49.540;8.574;2023-02-26T04:07:24;0.80;60.60
3348;DHT22;1687;49.540;8.574;2023-02-26T04:09:51;0.70;60.80
3348;DHT22;1687;49.540;8.574;2023-02-26T04:12:24;0.70;61.00
3348;DHT22;1687;49.540;8.574;2023-02-26T04:14:51;0.80;61.20
3348;DHT22;1687;49.540;8.574;2023-02-26T04:17:17;0.70;60.80
3348;DHT22;1687;49.540;8.574;2023-02-26T04:19:43;0.70;61.20
3348;DHT22;1687;49.540;8.574;2023-02-26T04:22:09;0.80;61.30
3348;DHT22;1687;49.540;8.574;2023-02-26T04:24:34;0.80;61.50
3348;DHT22;1687;49.540;8.574;2023-02-26T04:27:00;0.80;61.30
3348;DHT22;1687;49.540;8.574;2023-02-26T04:29:26;0.80;61.40
3348;DHT22;1687;49.540;8.574;2023-02-26T04:31:52;0.80;61.30
3348;DHT22;1687;49.540;8.574;2023-02-26T04:34:18;0.80;61.40
3348;DHT22;1687;49.540;8.574;2023-02-26T04:36:44;0.70;61.40
3348;DHT22;1687;49.540;8.574;2023-02-26T04:39:10;0.80;61.60
3348;DHT22;1687;49.540;8.574;2023-02-26T04:41:36;0.70;61.50
3348;DHT22;1687;49.540;8.574;2023-02-26T04:44:03;0.70;61.40
3348;DHT22;1687;49.540;8.574;2023-02-26T04:46:29;0.70;61.70
3348;DHT22;1687;49.540;8.574;2023-02-26T04:48:55;0.70;61.70
3348;DHT22;1687;49.540;8.574;2023-02-26T04:51:21;0.70;61.60
3348;DHT22;1687;49.540;8.574;2023-02-26T04:53:47;0.60;61.40
3348;DHT22;1687;49.540;8.574;2023-02-26T04:56:13;0.50;61.60
3348;DHT22;1687;49.540;8.574;2023-02-26T04:58:39;0.60;62.70
3348;DHT22;1687;49.540;8.574;2023-02-26T05:01:04;0.60;62.10
3348;DHT22;1687;49.540;8.574;2023-02-26T05:03:30;0.70;62.30
3348;DHT22;1687;49.540;8.574;2023-02-26T05:05:56;0.70;62.40
3348;DHT22;1687;49.540;8.574;2023-02-26T05:08:22;0.80;62.40
3348;DHT22;1687;49.540;8.574;2023-02-26T05:10:50;0.80;62.40
3348;DHT22;1687;49.540;8.574;2023-02-26T05:13:17;0.80;62.20
3348;DHT22;1687;49.540;8.574;2023-02-26T05:15:43;0.70;62.20
3348;DHT22;1687;49.540;8.574;2023-02-26T05:18:09;0.70;62.20
3348;DHT22;1687;49.540;8.574;2023-02-26T05:20:34;0.70;62.30
3348;DHT22;1687;49.540;8.574;2023-02-26T05:23:00;0.70;62.40
3348;DHT22;1687;49.540;8.574;2023-02-26T05:25:26;0.70;62.20
3348;DHT22;1687;49.540;8.574;2023-02-26T05:27:51;0.60;62.10
3348;DHT22;1687;49.540;8.574;2023-02-26T05:30:17;0.70;62.50
3348;DHT22;1687;49.540;8.574;2023-02-26T05:32:43;0.70;62.70
3348;DHT22;1687;49.540;8.574;2023-02-26T05:35:09;0.80;62.80
3348;DHT22;1687;49.540;8.574;2023-02-26T05:37:36;0.70;62.40
3348;DHT22;1687;49.540;8.574;2023-02-26T05:40:04;0.80;62.80
3348;DHT22;1687;49.540;8.574;2023-02-26T05:42:30;0.70;62.50
3348;DHT22;1687;49.540;8.574;2023-02-26T05:44:56;0.70;62.60
3348;DHT22;1687;49.540;8.574;2023-02-26T05:47:22;0.60;62.60
3348;DHT22;1687;49.540;8.574;2023-02-26T05:49:48;0.60;62.80
3348;DHT22;1687;49.540;8.574;2023-02-26T05:52:14;0.70;63.10
3348;DHT22;1687;49.540;8.574;2023-02-26T05:54:40;0.70;63.10
3348;DHT22;1687;49.540;8.574;2023-02-26T05:57:06;0.70;63.00
3348;DHT22;1687;49.540;8.574;2023-02-26T05:59:31;0.70;63.00
3348;DHT22;1687;49.540;8.574;2023-02-26T06:01:57;0.70;63.30
3348;DHT22;1687;49.540;8.574;2023-02-26T06:04:23;0.70;62.90
3348;DHT22;1687;49.540;8.574;2023-02-26T06:06:49;0.70;63.10
3348;DHT22;1687;49.540;8.574;2023-02-26T06:09:14;0.70;63.80
3348;DHT22;1687;49.540;8.574;2023-02-26T06:11:40;0.70;63.10
3348;DHT22;1687;49.540;8.574;2023-02-26T06:14:06;0.60;63.00
3348;DHT22;1687;49.540;8.574;2023-02-26T06:16:32;0.60;63.20
3348;DHT22;1687;49.540;8.574;2023-02-26T06:19:00;0.60;63.20
3348;DHT22;1687;49.540;8.574;2023-02-26T06:21:26;0.60;63.40
3348;DHT22;1687;49.540;8.574;2023-02-26T06:23:52;0.70;63.60
3348;DHT22;1687;49.540;8.574;2023-02-26T06:26:17;0.70;63.50
3348;DHT22;1687;49.540;8.574;2023-02-26T06:28:43;0.70;63.50
3348;DHT22;1687;49.540;8.574;2023-02-26T06:31:09;0.60;63.40
3348;DHT22;1687;49.540;8.574;2023-02-26T06:33:35;0.70;63.70
3348;DHT22;1687;49.540;8.574;2023-02-26T06:36:00;0.70;63.70
3348;DHT22;1687;49.540;8.574;2023-02-26T06:38:27;0.70;63.70
3348;DHT22;1687;49.540;8.574;2023-02-26T06:40:53;0.70;63.80
3348;DHT22;1687;49.540;8.574;2023-02-26T06:43:19;0.70;63.70
3348;DHT22;1687;49.540;8.574;2023-02-26T06:45:45;0.70;63.80
3348;DHT22;1687;49.540;8.574;2023-02-26T06:48:11;0.70;63.80
3348;DHT22;1687;49.540;8.574;2023-02-26T06:50:36;0.70;63.80
3348;DHT22;1687;49.540;8.574;2023-02-26T06:53:02;0.80;64.10
3348;DHT22;1687;49.540;8.574;2023-02-26T06:55:28;0.80;64.00
3348;DHT22;1687;49.540;8.574;2023-02-26T06:57:55;0.90;64.30
3348;DHT22;1687;49.540;8.574;2023-02-26T07:00:22;0.90;64.10
3348;DHT22;1687;49.540;8.574;2023-02-26T07:02:49;0.90;64.00
3348;DHT22;1687;49.540;8.574;2023-02-26T07:05:15;0.90;64.00
3348;DHT22;1687;49.540;8.574;2023-02-26T07:07:41;0.90;64.00
3348;DHT22;1687;49.540;8.574;2023-02-26T07:10:09;0.80;64.00
3348;DHT22;1687;49.540;8.574;2023-02-26T07:12:36;0.80;64.00
3348;DHT22;1687;49.540;8.574;2023-02-26T07:15:03;0.80;64.00
3348;DHT22;1687;49.540;8.574;2023-02-26T07:17:30;0.80;64.50
3348;DHT22;1687;49.540;8.574;2023-02-26T07:19:56;1.00;64.60
3348;DHT22;1687;49.540;8.574;2023-02-26T07:22:22;1.00;64.50
3348;DHT22;1687;49.540;8.574;2023-02-26T07:24:48;1.10;64.60
3348;DHT22;1687;49.540;8.574;2023-02-26T07:27:14;1.10;64.60
3348;DHT22;1687;49.540;8.574;2023-02-26T07:29:40;1.30;65.00
3348;DHT22;1687;49.540;8.574;2023-02-26T07:32:05;1.40;64.90
3348;DHT22;1687;49.540;8.574;2023-02-26T07:34:32;1.50;64.90
3348;DHT22;1687;49.540;8.574;2023-02-26T07:36:57;1.50;64.60
3348;DHT22;1687;49.540;8.574;2023-02-26T07:39:24;1.50;64.80
3348;DHT22;1687;49.540;8.574;2023-02-26T07:41:51;1.50;64.60
3348;DHT22;1687;49.540;8.574;2023-02-26T07:44:17;1.40;64.50
3348;DHT22;1687;49.540;8.574;2023-02-26T07:46:43;1.40;64.50
3348;DHT22;1687;49.540;8.574;2023-02-26T07:49:09;1.40;64.80
3348;DHT22;1687;49.540;8.574;2023-02-26T07:51:34;1.50;64.80
3348;DHT22;1687;49.540;8.574;2023-02-26T07:54:01;1.60;65.00
3348;DHT22;1687;49.540;8.574;2023-02-26T07:56:27;1.70;65.00
3348;DHT22;1687;49.540;8.574;2023-02-26T07:58:53;1.80;65.10
3348;DHT22;1687;49.540;8.574;2023-02-26T08:01:18;1.80;65.00
3348;DHT22;1687;49.540;8.574;2023-02-26T08:03:44;1.90;65.00
3348;DHT22;1687;49.540;8.574;2023-02-26T08:06:09;1.90;65.10
3348;DHT22;1687;49.540;8.574;2023-02-26T08:08:35;2.00;64.90
3348;DHT22;1687;49.540;8.574;2023-02-26T08:11:01;2.00;64.90
3348;DHT22;1687;49.540;8.574;2023-02-26T08:13:27;2.10;65.00
3348;DHT22;1687;49.540;8.574;2023-02-26T08:15:53;2.20;65.10
3348;DHT22;1687;49.540;8.574;2023-02-26T08:18:18;2.30;65.30
3348;DHT22;1687;49.540;8.574;2023-02-26T08:20:45;2.30;64.90
3348;DHT22;1687;49.540;8.574;2023-02-26T08:23:11;2.40;65.20
3348;DHT22;1687;49.540;8.574;2023-02-26T08:25:37;2.50;65.20
3348;DHT22;1687;49.540;8.574;2023-02-26T08:28:03;2.50;65.00
3348;DHT22;1687;49.540;8.574;2023-02-26T08:30:29;2.60;65.00
3348;DHT22;1687;49.540;8.574;2023-02-26T08:32:55;2.70;65.10
3348;DHT22;1687;49.540;8.574;2023-02-26T08:35:21;2.70;65.00
3348;DHT22;1687;49.540;8.574;2023-02-26T08:37:47;2.70;64.80
3348;DHT22;1687;49.540;8.574;2023-02-26T08:40:12;2.70;64.90
3348;DHT22;1687;49.540;8.574;2023-02-26T08:42:38;2.70;64.60
3348;DHT22;1687;49.540;8.574;2023-02-26T08:45:05;2.70;65.50
3348;DHT22;1687;49.540;8.574;2023-02-26T08:47:31;2.80;65.10
3348;DHT22;1687;49.540;8.574;2023-02-26T08:49:56;2.80;64.90
3348;DHT22;1687;49.540;8.574;2023-02-26T08:52:23;2.80;65.50
3348;DHT22;1687;49.540;8.574;2023-02-26T08:54:49;2.80;64.70
3348;DHT22;1687;49.540;8.574;2023-02-26T08:57:15;2.90;65.10
3348;DHT22;1687;49.540;8.574;2023-02-26T08:59:41;2.90;64.70
3348;DHT22;1687;49.540;8.574;2023-02-26T09:02:08;2.80;64.40
3348;DHT22;1687;49.540;8.574;2023-02-26T09:04:35;2.80;64.60
3348;DHT22;1687;49.540;8.574;2023-02-26T09:07:01;2.90;64.80
3348;DHT22;1687;49.540;8.574;2023-02-26T09:09:26;3.00;64.90
3348;DHT22;1687;49.540;8.574;2023-02-26T09:11:52;3.10;64.90
3348;DHT22;1687;49.540;8.574;2023-02-26T09:14:18;3.20;64.90
3348;DHT22;1687;49.540;8.574;2023-02-26T09:16:43;3.30;65.00
3348;DHT22;1687;49.540;8.574;2023-02-26T09:19:09;3.40;64.80
3348;DHT22;1687;49.540;8.574;2023-02-26T09:21:35;3.60;65.00
3348;DHT22;1687;49.540;8.574;2023-02-26T09:24:01;3.80;65.00
3348;DHT22;1687;49.540;8.574;2023-02-26T09:26:26;3.90;64.90
3348;DHT22;1687;49.540;8.574;2023-02-26T09:28:52;4.00;65.00
3348;DHT22;1687;49.540;8.574;2023-02-26T09:31:18;4.10;64.90
3348;DHT22;1687;49.540;8.574;2023-02-26T09:33:43;4.40;65.10
3348;DHT22;1687;49.540;8.574;2023-02-26T09:36:09;4.60;65.10
3348;DHT22;1687;49.540;8.574;2023-02-26T09:38:35;4.90;65.10
3348;DHT22;1687;49.540;8.574;2023-02-26T09:41:37;5.10;65.10
3348;DHT22;1687;49.540;8.574;2023-02-26T09:44:03;5.30;64.80
3348;DHT22;1687;49.540;8.574;2023-02-26T09:46:49;5.40;64.80
3348;DHT22;1687;49.540;8.574;2023-02-26T09:49:30;5.60;65.00
3348;DHT22;1687;49.540;8.574;2023-02-26T09:52:30;5.80;65.10
3348;DHT22;1687;49.540;8.574;2023-02-26T09:55:29;6.00;65.10
3348;DHT22;1687;49.540;8.574;2023-02-26T09:58:01;6.10;64.50
3348;DHT22;1687;49.540;8.574;2023-02-26T10:00:40;6.20;64.20
3348;DHT22;1687;49.540;8.574;2023-02-26T10:06:45;6.30;64.20
3348;DHT22;1687;49.540;8.574;2023-02-26T10:09:38;6.40;63.70
3348;DHT22;1687;49.540;8.574;2023-02-26T10:12:21;6.40;63.80
3348;DHT22;1687;49.540;8.574;2023-02-26T10:15:00;6.50;63.80
3348;DHT22;1687;49.540;8.574;2023-02-26T10:17:41;6.60;63.60
3348;DHT22;1687;49.540;8.574;2023-02-26T10:23:48;6.50;63.50
3348;DHT22;1687;49.540;8.574;2023-02-26T10:29:20;6.80;63.40
3348;DHT22;1687;49.540;8.574;2023-02-26T10:34:54;6.80;62.30
3348;DHT22;1687;49.540;8.574;2023-02-26T10:43:39;6.50;61.60
3348;DHT22;1687;49.540;8.574;2023-02-26T10:46:45;6.40;62.20
3348;DHT22;1687;49.540;8.574;2023-02-26T10:49:53;6.40;61.30
3348;DHT22;1687;49.540;8.574;2023-02-26T10:52:26;6.60;61.60
3348;DHT22;1687;49.540;8.574;2023-02-26T10:57:36;6.80;61.10
3348;DHT22;1687;49.540;8.574;2023-02-26T11:00:05;6.70;60.80
3348;DHT22;1687;49.540;8.574;2023-02-26T11:02:40;6.80;61.10
3348;DHT22;1687;49.540;8.574;2023-02-26T11:05:16;6.90;60.90
3348;DHT22;1687;49.540;8.574;2023-02-26T11:07:47;7.00;61.20
3348;DHT22;1687;49.540;8.574;2023-02-26T11:10:19;7.30;61.20
3348;DHT22;1687;49.540;8.574;2023-02-26T11:12:48;7.10;60.20
3348;DHT22;1687;49.540;8.574;2023-02-26T11:15:20;7.30;61.20
3348;DHT22;1687;49.540;8.574;2023-02-26T11:17:48;7.50;60.90
3348;DHT22;1687;49.540;8.574;2023-02-26T11:20:36;7.60;60.10
3348;DHT22;1687;49.540;8.574;2023-02-26T11:23:06;7.60;60.00
3348;DHT22;1687;49.540;8.574;2023-02-26T11:25:37;7.60;60.40
3348;DHT22;1687;49.540;8.574;2023-02-26T11:28:18;7.90;60.60
3348;DHT22;1687;49.540;8.574;2023-02-26T11:30:45;8.10;60.40
3348;DHT22;1687;49.540;8.574;2023-02-26T11:33:37;8.30;60.30
3348;DHT22;1687;49.540;8.574;2023-02-26T11:36:28;8.50;60.00
3348;DHT22;1687;49.540;8.574;2023-02-26T11:38:56;8.50;59.70
3348;DHT22;1687;49.540;8.574;2023-02-26T11:41:27;8.50;59.70
3348;DHT22;1687;49.540;8.574;2023-02-26T11:44:01;8.70;59.50
3348;DHT22;1687;49.540;8.574;2023-02-26T11:46:29;8.80;59.60
3348;DHT22;1687;49.540;8.574;2023-02-26T11:48:57;8.70;59.00
3348;DHT22;1687;49.540;8.574;2023-02-26T11:51:26;8.50;58.40
3348;DHT22;1687;49.540;8.574;2023-02-26T11:53:55;8.20;58.40
3348;DHT22;1687;49.540;8.574;2023-02-26T11:56:36;7.90;58.00
3348;DHT22;1687;49.540;8.574;2023-02-26T11:59:23;7.70;58.20
3348;DHT22;1687;49.540;8.574;2023-02-26T12:01:51;7.70;58.20
3348;DHT22;1687;49.540;8.574;2023-02-26T12:04:20;7.60;58.10
3348;DHT22;1687;49.540;8.574;2023-02-26T12:06:54;7.70;58.50
3348;DHT22;1687;49.540;8.574;2023-02-26T12:09:20;7.90;58.70
3348;DHT22;1687;49.540;8.574;2023-02-26T12:12:11;7.70;57.60
3348;DHT22;1687;49.540;8.574;2023-02-26T12:15:02;7.40;57.20
3348;DHT22;1687;49.540;8.574;2023-02-26T12:17:47;7.30;57.60
3348;DHT22;1687;49.540;8.574;2023-02-26T12:20:44;7.30;57.60
3348;DHT22;1687;49.540;8.574;2023-02-26T12:24:09;7.10;57.00
3348;DHT22;1687;49.540;8.574;2023-02-26T12:38:07;6.70;57.30
3348;DHT22;1687;49.540;8.574;2023-02-26T12:43:54;7.10;57.70
3348;DHT22;1687;49.540;8.574;2023-02-26T12:58:12;7.60;57.30
3348;DHT22;1687;49.540;8.574;2023-02-26T13:10:16;8.20;57.20
3348;DHT22;1687;49.540;8.574;2023-02-26T13:19:23;7.10;55.60
3348;DHT22;1687;49.540;8.574;2023-02-26T13:21:54;7.00;56.00
3348;DHT22;1687;49.540;8.574;2023-02-26T13:24:35;7.10;56.20
3348;DHT22;1687;49.540;8.574;2023-02-26T13:27:04;7.20;56.30
3348;DHT22;1687;49.540;8.574;2023-02-26T13:29:43;7.20;55.80
3348;DHT22;1687;49.540;8.574;2023-02-26T13:32:22;7.20;56.20
3348;DHT22;1687;49.540;8.574;2023-02-26T13:34:51;7.20;55.90
3348;DHT22;1687;49.540;8.574;2023-02-26T13:37:23;7.20;56.00
3348;DHT22;1687;49.540;8.574;2023-02-26T13:39:57;7.20;55.90
3348;DHT22;1687;49.540;8.574;2023-02-26T13:45:52;7.40;56.20
3348;DHT22;1687;49.540;8.574;2023-02-26T13:51:49;7.40;55.80
3348;DHT22;1687;49.540;8.574;2023-02-26T14:06:54;7.70;55.80
3348;DHT22;1687;49.540;8.574;2023-02-26T14:14:39;7.80;55.40
3348;DHT22;1687;49.540;8.574;2023-02-26T14:20:25;7.90;55.60
3348;DHT22;1687;49.540;8.574;2023-02-26T14:22:42;8.00;55.50
3348;DHT22;1687;49.540;8.574;2023-02-26T14:27:48;7.70;54.70
3348;DHT22;1687;49.540;8.574;2023-02-26T14:30:29;7.60;54.70
3348;DHT22;1687;49.540;8.574;2023-02-26T14:35:45;7.50;54.90
3348;DHT22;1687;49.540;8.574;2023-02-26T14:38:34;7.70;55.00
3348;DHT22;1687;49.540;8.574;2023-02-26T14:41:20;7.90;54.90
3348;DHT22;1687;49.540;8.574;2023-02-26T14:44:02;7.90;54.50
3348;DHT22;1687;49.540;8.574;2023-02-26T14:46:33;7.90;54.40
3348;DHT22;1687;49.540;8.574;2023-02-26T14:49:00;7.90;54.50
3348;DHT22;1687;49.540;8.574;2023-02-26T14:51:38;7.60;53.90
3348;DHT22;1687;49.540;8.574;2023-02-26T14:55:04;7.40;53.70
3348;DHT22;1687;49.540;8.574;2023-02-26T14:58:09;7.20;53.90
3348;DHT22;1687;49.540;8.574;2023-02-26T15:01:10;7.10;54.20
3348;DHT22;1687;49.540;8.574;2023-02-26T15:13:01;7.70;54.10
3348;DHT22;1687;49.540;8.574;2023-02-26T15:19:00;9.30;54.30
3348;DHT22;1687;49.540;8.574;2023-02-26T15:24:29;9.90;53.10
3348;DHT22;1687;49.540;8.574;2023-02-26T15:27:02;9.10;52.60
3348;DHT22;1687;49.540;8.574;2023-02-26T15:29:34;8.50;52.90
3348;DHT22;1687;49.540;8.574;2023-02-26T15:32:27;8.60;52.70
3348;DHT22;1687;49.540;8.574;2023-02-26T15:35:02;8.20;52.40
3348;DHT22;1687;49.540;8.574;2023-02-26T15:37:35;9.00;53.60
3348;DHT22;1687;49.540;8.574;2023-02-26T15:40:05;10.40;52.60
3348;DHT22;1687;49.540;8.574;2023-02-26T15:42:36;9.80;52.00
3348;DHT22;1687;49.540;8.574;2023-02-26T15:45:07;9.20;52.40
3348;DHT22;1687;49.540;8.574;2023-02-26T15:47:38;8.80;52.40
3348;DHT22;1687;49.540;8.574;2023-02-26T15:50:04;8.20;51.50
3348;DHT22;1687;49.540;8.574;2023-02-26T15:52:30;7.70;51.60
3348;DHT22;1687;49.540;8.574;2023-02-26T15:55:03;7.30;51.60
3348;DHT22;1687;49.540;8.574;2023-02-26T15:57:31;7.00;51.60
3348;DHT22;1687;49.540;8.574;2023-02-26T16:00:04;6.70;51.60
3348;DHT22;1687;49.540;8.574;2023-02-26T16:02:33;6.60;51.90
3348;DHT22;1687;49.540;8.574;2023-02-26T16:05:01;6.50;51.90
3348;DHT22;1687;49.540;8.574;2023-02-26T16:07:29;6.40;51.90
3348;DHT22;1687;49.540;8.574;2023-02-26T16:10:06;6.30;52.00
3348;DHT22;1687;49.540;8.574;2023-02-26T16:12:38;6.30;52.10
3348;DHT22;1687;49.540;8.574;2023-02-26T16:15:12;6.30;52.10
3348;DHT22;1687;49.540;8.574;2023-02-26T16:17:46;6.30;52.20
3348;DHT22;1687;49.540;8.574;2023-02-26T16:20:19;6.20;52.00
3348;DHT22;1687;49.540;8.574;2023-02-26T16:22:57;6.00;51.60
3348;DHT22;1687;49.540;8.574;2023-02-26T16:25:36;5.90;51.80
3348;DHT22;1687;49.540;8.574;2023-02-26T16:28:04;5.80;51.80
3348;DHT22;1687;49.540;8.574;2023-02-26T16:30:34;5.70;51.70
3348;DHT22;1687;49.540;8.574;2023-02-26T16:33:03;5.60;51.50
3348;DHT22;1687;49.540;8.574;2023-02-26T16:35:37;5.50;51.60
3348;DHT22;1687;49.540;8.574;2023-02-26T16:38:25;5.50;51.70
3348;DHT22;1687;49.540;8.574;2023-02-26T16:41:07;5.50;51.80
3348;DHT22;1687;49.540;8.574;2023-02-26T16:46:38;5.40;51.70
3348;DHT22;1687;49.540;8.574;2023-02-26T16:49:30;5.40;51.70
3348;DHT22;1687;49.540;8.574;2023-02-26T16:51:57;5.30;51.60
3348;DHT22;1687;49.540;8.574;2023-02-26T16:54:28;5.30;51.60
3348;DHT22;1687;49.540;8.574;2023-02-26T16:57:07;5.30;51.90
3348;DHT22;1687;49.540;8.574;2023-02-26T16:59:39;5.30;51.90
3348;DHT22;1687;49.540;8.574;2023-02-26T17:02:13;5.30;51.90
3348;DHT22;1687;49.540;8.574;2023-02-26T17:04:45;5.40;52.00
3348;DHT22;1687;49.540;8.574;2023-02-26T17:07:26;5.40;51.90
3348;DHT22;1687;49.540;8.574;2023-02-26T17:09:58;5.30;51.80
3348;DHT22;1687;49.540;8.574;2023-02-26T17:12:44;5.30;51.80
3348;DHT22;1687;49.540;8.574;2023-02-26T17:15:19;5.30;51.80
3348;DHT22;1687;49.540;8.574;2023-02-26T17:17:51;5.20;51.60
3348;DHT22;1687;49.540;8.574;2023-02-26T17:20:21;5.20;51.90
3348;DHT22;1687;49.540;8.574;2023-02-26T17:22:48;5.20;51.70
3348;DHT22;1687;49.540;8.574;2023-02-26T17:25:16;5.20;51.70
3348;DHT22;1687;49.540;8.574;2023-02-26T17:27:44;5.00;51.60
3348;DHT22;1687;49.540;8.574;2023-02-26T17:30:14;4.90;51.50
3348;DHT22;1687;49.540;8.574;2023-02-26T17:32:41;4.80;51.50
3348;DHT22;1687;49.540;8.574;2023-02-26T17:35:07;4.80;51.60
3348;DHT22;1687;49.540;8.574;2023-02-26T17:37:34;4.80;51.70
3348;DHT22;1687;49.540;8.574;2023-02-26T17:40:24;4.90;51.80
3348;DHT22;1687;49.540;8.574;2023-02-26T17:42:52;4.90;51.60
3348;DHT22;1687;49.540;8.574;2023-02-26T17:45:18;4.90;51.90
3348;DHT22;1687;49.540;8.574;2023-02-26T17:47:45;4.90;51.80
3348;DHT22;1687;49.540;8.574;2023-02-26T17:50:25;4.90;51.70
3348;DHT22;1687;49.540;8.574;2023-02-26T17:53:01;4.90;51.70
3348;DHT22;1687;49.540;8.574;2023-02-26T17:55:28;4.90;51.80
3348;DHT22;1687;49.540;8.574;2023-02-26T17:57:55;4.80;51.70
3348;DHT22;1687;49.540;8.574;2023-02-26T18:00:21;4.90;51.80
3348;DHT22;1687;49.540;8.574;2023-02-26T18:02:47;4.90;51.90
3348;DHT22;1687;49.540;8.574;2023-02-26T18:05:15;4.90;51.80
3348;DHT22;1687;49.540;8.574;2023-02-26T18:07:41;4.80;51.50
3348;DHT22;1687;49.540;8.574;2023-02-26T18:10:09;4.80;51.70
3348;DHT22;1687;49.540;8.574;2023-02-26T18:12:36;4.80;51.80
3348;DHT22;1687;49.540;8.574;2023-02-26T18:15:03;4.80;51.70
3348;DHT22;1687;49.540;8.574;2023-02-26T18:17:30;4.80;51.70
3348;DHT22;1687;49.540;8.574;2023-02-26T18:19:56;4.70;51.70
3348;DHT22;1687;49.540;8.574;2023-02-26T18:22:23;4.80;51.70
3348;DHT22;1687;49.540;8.574;2023-02-26T18:24:50;4.80;51.70
3348;DHT22;1687;49.540;8.574;2023-02-26T18:27:22;4.70;51.50
3348;DHT22;1687;49.540;8.574;2023-02-26T18:29:48;4.70;51.50
3348;DHT22;1687;49.540;8.574;2023-02-26T18:32:16;4.60;51.40
3348;DHT22;1687;49.540;8.574;2023-02-26T18:34:44;4.60;51.40
3348;DHT22;1687;49.540;8.574;2023-02-26T18:37:12;4.50;51.30
3348;DHT22;1687;49.540;8.574;2023-02-26T18:39:40;4.60;51.50
3348;DHT22;1687;49.540;8.574;2023-02-26T18:42:06;4.70;51.50
3348;DHT22;1687;49.540;8.574;2023-02-26T18:44:45;4.70;51.30
3348;DHT22;1687;49.540;8.574;2023-02-26T18:47:11;4.60;51.30
3348;DHT22;1687;49.540;8.574;2023-02-26T18:49:37;4.70;51.40
3348;DHT22;1687;49.540;8.574;2023-02-26T18:52:03;4.70;51.20
3348;DHT22;1687;49.540;8.574;2023-02-26T18:54:28;4.60;51.20
3348;DHT22;1687;49.540;8.574;2023-02-26T18:56:54;4.50;50.90
3348;DHT22;1687;49.540;8.574;2023-02-26T18:59:20;4.40;51.00
3348;DHT22;1687;49.540;8.574;2023-02-26T19:01:45;4.40;50.90
3348;DHT22;1687;49.540;8.574;2023-02-26T19:04:12;4.30;50.90
3348;DHT22;1687;49.540;8.574;2023-02-26T19:06:38;4.20;50.90
3348;DHT22;1687;49.540;8.574;2023-02-26T19:09:04;4.20;50.90
3348;DHT22;1687;49.540;8.574;2023-02-26T19:11:30;4.10;50.80
3348;DHT22;1687;49.540;8.574;2023-02-26T19:13:56;4.10;50.90
3348;DHT22;1687;49.540;8.574;2023-02-26T19:16:22;4.00;50.80
3348;DHT22;1687;49.540;8.574;2023-02-26T19:18:49;4.00;50.90
3348;DHT22;1687;49.540;8.574;2023-02-26T19:21:15;4.00;51.00
3348;DHT22;1687;49.540;8.574;2023-02-26T19:23:42;4.00;50.90